PWSweather.com
Personal Weather Stations
Station Observations
UXOLA
Alcoy, AlcoyES

AlcoyAlcoyES

Lat: 38.70299, Lon: -0.48184

Elevation: 1935

Station Type: PCE FWS-20,

http://www.fiestasalcoy.xyz

High Low Average
Temperature 45.1°F7.3°C 39.2°F4.0°C 41.7°F5.4°C
Dew Point 39.5°F4.2°C 34.9°F1.6°C 38.0°F3.3°C
Winds 5.4 mph 8.7 kmh Calm Calm 2.0 mph E3.2 kmh E
Wind Gusts 8.3 mph13.4 kmh 0.7 mph1.1 kmh 4.0 mph6.4 kmh
Humidity 95% 70% 87%
Pressure 29.95 in1014.2 mb 29.88 in1011.9 mb -
Precipitation 0.18 in4.6 mm - -
Hour Temp Dew Point Humidity Winds Wind Gusts Pressure Precip Precip Rate Daily Precip Total
12:00 AM 44.1°F6.7°C 34.9°F1.6°C 70% Calm Calm 0.7 mph1.1 kmh 29.90 in1012.5 mb 0.00 in0.0 mm 0.00 in0.0 mm 0.00 in0.0 mm
12:15 AM 43.9°F6.6°C 36.5°F2.5°C 75% 0.7 mph ENE1.1 kmh ENE 1.6 mph2.6 kmh 29.90 in1012.5 mb 0.00 in0.0 mm 0.00 in0.0 mm 0.00 in0.0 mm
12:30 AM 43.9°F6.6°C 36.8°F2.7°C 76% Calm Calm 1.6 mph2.6 kmh 29.90 in1012.5 mb 0.00 in0.0 mm 0.00 in0.0 mm 0.00 in0.0 mm
12:45 AM 44.1°F6.7°C 35.3°F1.8°C 71% 0.7 mph SW1.1 kmh SW 2.2 mph3.5 kmh 29.90 in1012.5 mb 0.00 in0.0 mm 0.00 in0.0 mm 0.00 in0.0 mm
01:00 AM 44.2°F6.8°C 35.4°F1.9°C 71% Calm Calm 0.7 mph1.1 kmh 29.91 in1012.9 mb 0.00 in0.0 mm 0.00 in0.0 mm 0.00 in0.0 mm
01:15 AM 44.2°F6.8°C 35.4°F1.9°C 71% 0.7 mph SW1.1 kmh SW 3.1 mph5.0 kmh 29.91 in1012.9 mb 0.00 in0.0 mm 0.00 in0.0 mm 0.00 in0.0 mm
01:30 AM 44.4°F6.9°C 36.0°F2.2°C 72% Calm Calm 2.2 mph3.5 kmh 29.91 in1012.9 mb 0.00 in0.0 mm 0.00 in0.0 mm 0.00 in0.0 mm
01:45 AM 44.8°F7.1°C 36.7°F2.6°C 73% 0.7 mph SW1.1 kmh SW 3.1 mph5.0 kmh 29.91 in1012.9 mb 0.00 in0.0 mm 0.00 in0.0 mm 0.00 in0.0 mm
02:00 AM 45.0°F7.2°C 37.2°F2.9°C 74% Calm Calm 1.6 mph2.6 kmh 29.91 in1012.9 mb 0.00 in0.0 mm 0.00 in0.0 mm 0.00 in0.0 mm
02:15 AM 45.1°F7.3°C 37.4°F3.0°C 74% Calm Calm 1.6 mph2.6 kmh 29.90 in1012.5 mb 0.00 in0.0 mm 0.00 in0.0 mm 0.00 in0.0 mm
02:30 AM 45.1°F7.3°C 37.7°F3.2°C 75% 0.7 mph ENE1.1 kmh ENE 1.6 mph2.6 kmh 29.90 in1012.5 mb 0.00 in0.0 mm 0.00 in0.0 mm 0.00 in0.0 mm
02:45 AM 45.0°F7.2°C 37.2°F2.9°C 74% Calm Calm 1.6 mph2.6 kmh 29.90 in1012.5 mb 0.00 in0.0 mm 0.00 in0.0 mm 0.00 in0.0 mm
03:00 AM 45.0°F7.2°C 37.5°F3.1°C 75% 1.6 mph NE2.6 kmh NE 3.1 mph5.0 kmh 29.89 in1012.2 mb 0.00 in0.0 mm 0.00 in0.0 mm 0.00 in0.0 mm
03:15 AM 45.0°F7.2°C 37.9°F3.3°C 76% 0.7 mph E1.1 kmh E 2.2 mph3.5 kmh 29.89 in1012.2 mb 0.00 in0.0 mm 0.00 in0.0 mm 0.00 in0.0 mm
03:30 AM 44.8°F7.1°C 37.7°F3.2°C 76% Calm Calm 3.1 mph5.0 kmh 29.89 in1012.2 mb 0.00 in0.0 mm 0.00 in0.0 mm 0.00 in0.0 mm
03:45 AM 45.0°F7.2°C 38.2°F3.4°C 77% Calm Calm 1.6 mph2.6 kmh 29.89 in1012.2 mb 0.00 in0.0 mm 0.00 in0.0 mm 0.00 in0.0 mm
04:00 AM 44.8°F7.1°C 38.0°F3.3°C 77% Calm Calm 1.6 mph2.6 kmh 29.88 in1011.9 mb 0.00 in0.0 mm 0.00 in0.0 mm 0.00 in0.0 mm
04:15 AM 44.8°F7.1°C 38.0°F3.3°C 77% 0.7 mph ESE1.1 kmh ESE 1.6 mph2.6 kmh 29.89 in1012.2 mb 0.00 in0.0 mm 0.00 in0.0 mm 0.00 in0.0 mm
04:30 AM 44.6°F7.0°C 38.2°F3.4°C 78% 0.7 mph E1.1 kmh E 1.6 mph2.6 kmh 29.89 in1012.2 mb 0.00 in0.0 mm 0.00 in0.0 mm 0.00 in0.0 mm
04:45 AM 44.6°F7.0°C 37.8°F3.2°C 77% 0.7 mph E1.1 kmh E 3.1 mph5.0 kmh 29.88 in1011.9 mb 0.00 in0.0 mm 0.00 in0.0 mm 0.00 in0.0 mm
05:00 AM 44.2°F6.8°C 37.2°F2.9°C 76% Calm Calm 2.2 mph3.5 kmh 29.89 in1012.2 mb 0.00 in0.0 mm 0.00 in0.0 mm 0.00 in0.0 mm
05:15 AM 44.2°F6.8°C 37.5°F3.1°C 77% 0.7 mph ENE1.1 kmh ENE 1.6 mph2.6 kmh 29.88 in1011.9 mb 0.00 in0.0 mm 0.00 in0.0 mm 0.00 in0.0 mm
05:30 AM 44.4°F6.9°C 38.3°F3.5°C 79% Calm Calm 1.6 mph2.6 kmh 29.89 in1012.2 mb 0.00 in0.0 mm 0.00 in0.0 mm 0.00 in0.0 mm
05:45 AM 44.4°F6.9°C 38.6°F3.7°C 80% 4.5 mph ENE7.2 kmh ENE 5.4 mph8.7 kmh 29.88 in1011.9 mb 0.00 in0.0 mm 0.00 in0.0 mm 0.00 in0.0 mm
06:00 AM 43.5°F6.4°C 39.0°F3.9°C 84% 2.2 mph ENE3.5 kmh ENE 8.3 mph13.4 kmh 29.89 in1012.2 mb 0.00 in0.0 mm 0.00 in0.0 mm 0.00 in0.0 mm
06:15 AM 43.2°F6.2°C 38.7°F3.7°C 84% 5.4 mph E8.7 kmh E 6.9 mph11.1 kmh 29.89 in1012.2 mb 0.00 in0.0 mm 0.00 in0.0 mm 0.00 in0.0 mm
06:30 AM 43.0°F6.1°C 38.8°F3.8°C 85% 4.5 mph E7.2 kmh E 5.4 mph8.7 kmh 29.89 in1012.2 mb 0.00 in0.0 mm 0.00 in0.0 mm 0.00 in0.0 mm
06:45 AM 43.0°F6.1°C 38.8°F3.8°C 85% 4.5 mph ENE7.2 kmh ENE 6.0 mph9.7 kmh 29.89 in1012.2 mb 0.00 in0.0 mm 0.00 in0.0 mm 0.00 in0.0 mm
07:00 AM 43.2°F6.2°C 39.0°F3.9°C 85% 2.2 mph NE3.5 kmh NE 4.5 mph7.2 kmh 29.89 in1012.2 mb 0.00 in0.0 mm 0.00 in0.0 mm 0.00 in0.0 mm
07:15 AM 43.0°F6.1°C 38.8°F3.8°C 85% 0.7 mph E1.1 kmh E 4.5 mph7.2 kmh 29.89 in1012.2 mb 0.00 in0.0 mm 0.00 in0.0 mm 0.00 in0.0 mm
07:30 AM 42.6°F5.9°C 38.4°F3.6°C 85% 2.2 mph ENE3.5 kmh ENE 3.8 mph6.1 kmh 29.89 in1012.2 mb 0.00 in0.0 mm 0.00 in0.0 mm 0.00 in0.0 mm
07:45 AM 42.3°F5.7°C 38.4°F3.6°C 86% 0.7 mph ENE1.1 kmh ENE 1.6 mph2.6 kmh 29.89 in1012.2 mb 0.00 in0.0 mm 0.00 in0.0 mm 0.00 in0.0 mm
08:00 AM 42.3°F5.7°C 38.7°F3.7°C 87% Calm Calm 2.2 mph3.5 kmh 29.89 in1012.2 mb 0.00 in0.0 mm 0.00 in0.0 mm 0.00 in0.0 mm
08:15 AM 42.4°F5.8°C 39.1°F3.9°C 88% Calm Calm 3.1 mph5.0 kmh 29.90 in1012.5 mb 0.01 in0.3 mm 0.04 in1.0 mm 0.01 in0.3 mm
08:30 AM 42.3°F5.7°C 39.3°F4.1°C 89% 0.7 mph NE1.1 kmh NE 3.8 mph6.1 kmh 29.89 in1012.2 mb 0.01 in0.3 mm 0.00 in0.0 mm 0.01 in0.3 mm
08:45 AM 42.1°F5.6°C 39.4°F4.1°C 90% 2.2 mph E3.5 kmh E 3.8 mph6.1 kmh 29.90 in1012.5 mb 0.01 in0.3 mm 0.00 in0.0 mm 0.01 in0.3 mm
09:00 AM 41.9°F5.5°C 39.2°F4.0°C 90% 2.2 mph NE3.5 kmh NE 4.5 mph7.2 kmh 29.90 in1012.5 mb 0.01 in0.3 mm 0.00 in0.0 mm 0.01 in0.3 mm
09:15 AM 41.7°F5.4°C 39.3°F4.1°C 91% 3.8 mph ENE6.1 kmh ENE 4.5 mph7.2 kmh 29.90 in1012.5 mb 0.00 in0.0 mm 0.00 in0.0 mm 0.01 in0.3 mm
09:30 AM 41.7°F5.4°C 39.3°F4.1°C 91% 2.2 mph ENE3.5 kmh ENE 3.8 mph6.1 kmh 29.90 in1012.5 mb 0.01 in0.3 mm 0.04 in1.0 mm 0.02 in0.5 mm
09:45 AM 41.7°F5.4°C 39.3°F4.1°C 91% 0.7 mph ENE1.1 kmh ENE 3.1 mph5.0 kmh 29.90 in1012.5 mb 0.01 in0.3 mm 0.00 in0.0 mm 0.02 in0.5 mm
10:00 AM 41.9°F5.5°C 39.5°F4.2°C 91% 0.7 mph WNW1.1 kmh WNW 3.8 mph6.1 kmh 29.90 in1012.5 mb 0.02 in0.5 mm 0.01 in0.3 mm 0.04 in1.0 mm
10:15 AM 41.9°F5.5°C 39.5°F4.2°C 91% Calm Calm 1.6 mph2.6 kmh 29.90 in1012.5 mb 0.02 in0.5 mm 0.00 in0.0 mm 0.04 in1.0 mm
10:30 AM 41.5°F5.3°C 38.8°F3.8°C 90% 0.7 mph NE1.1 kmh NE 3.8 mph6.1 kmh 29.91 in1012.9 mb 0.02 in0.5 mm 0.00 in0.0 mm 0.05 in1.3 mm
10:45 AM 41.2°F5.1°C 38.2°F3.4°C 89% 3.8 mph ENE6.1 kmh ENE 6.9 mph11.1 kmh 29.91 in1012.9 mb 0.05 in1.3 mm 0.12 in3.0 mm 0.07 in1.8 mm
11:00 AM 41.5°F5.3°C 38.8°F3.8°C 90% 2.2 mph NE3.5 kmh NE 6.0 mph9.7 kmh 29.91 in1012.9 mb 0.04 in1.0 mm 0.00 in0.0 mm 0.07 in1.8 mm
11:15 AM 41.4°F5.2°C 38.7°F3.7°C 90% 2.2 mph ENE3.5 kmh ENE 4.5 mph7.2 kmh 29.91 in1012.9 mb 0.05 in1.3 mm 0.04 in1.0 mm 0.08 in2.0 mm
11:30 AM 41.2°F5.1°C 38.8°F3.8°C 91% 3.1 mph ENE5.0 kmh ENE 4.5 mph7.2 kmh 29.91 in1012.9 mb 0.04 in1.0 mm 0.00 in0.0 mm 0.08 in2.0 mm
11:45 AM 40.6°F4.8°C 38.2°F3.4°C 91% 4.5 mph NE7.2 kmh NE 5.4 mph8.7 kmh 29.90 in1012.5 mb 0.01 in0.3 mm 0.00 in0.0 mm 0.08 in2.0 mm
12:00 PM 40.6°F4.8°C 38.2°F3.4°C 91% 3.8 mph ENE6.1 kmh ENE 4.5 mph7.2 kmh 29.91 in1012.9 mb 0.01 in0.3 mm 0.00 in0.0 mm 0.08 in2.0 mm
12:15 PM 40.5°F4.7°C 38.0°F3.3°C 91% 2.2 mph E3.5 kmh E 4.5 mph7.2 kmh 29.91 in1012.9 mb 0.00 in0.0 mm 0.00 in0.0 mm 0.08 in2.0 mm
12:30 PM 40.6°F4.8°C 38.2°F3.4°C 91% 2.2 mph E3.5 kmh E 3.8 mph6.1 kmh 29.91 in1012.9 mb 0.00 in0.0 mm 0.00 in0.0 mm 0.08 in2.0 mm
12:45 PM 40.6°F4.8°C 38.2°F3.4°C 91% 1.6 mph NE2.6 kmh NE 4.5 mph7.2 kmh 29.91 in1012.9 mb 0.01 in0.3 mm 0.04 in1.0 mm 0.09 in2.3 mm
01:00 PM 40.8°F4.9°C 38.4°F3.6°C 91% 2.2 mph E3.5 kmh E 3.1 mph5.0 kmh 29.91 in1012.9 mb 0.01 in0.3 mm 0.00 in0.0 mm 0.09 in2.3 mm
01:15 PM 41.0°F5.0°C 38.6°F3.7°C 91% 3.1 mph ENE5.0 kmh ENE 3.8 mph6.1 kmh 29.91 in1012.9 mb 0.01 in0.3 mm 0.00 in0.0 mm 0.09 in2.3 mm
01:30 PM 41.0°F5.0°C 38.6°F3.7°C 91% 3.1 mph ENE5.0 kmh ENE 4.5 mph7.2 kmh 29.90 in1012.5 mb 0.02 in0.5 mm 0.04 in1.0 mm 0.11 in2.8 mm
01:45 PM 40.8°F4.9°C 38.4°F3.6°C 91% 2.2 mph NE3.5 kmh NE 3.1 mph5.0 kmh 29.90 in1012.5 mb 0.01 in0.3 mm 0.00 in0.0 mm 0.11 in2.8 mm
02:00 PM 40.8°F4.9°C 38.4°F3.6°C 91% 2.2 mph NE3.5 kmh NE 3.8 mph6.1 kmh 29.89 in1012.2 mb 0.02 in0.5 mm 0.01 in0.3 mm 0.12 in3.0 mm
02:15 PM 41.2°F5.1°C 39.0°F3.9°C 92% 1.6 mph E2.6 kmh E 3.8 mph6.1 kmh 29.89 in1012.2 mb 0.02 in0.5 mm 0.00 in0.0 mm 0.12 in3.0 mm
02:30 PM 41.2°F5.1°C 39.0°F3.9°C 92% 2.2 mph ENE3.5 kmh ENE 3.8 mph6.1 kmh 29.89 in1012.2 mb 0.01 in0.3 mm 0.00 in0.0 mm 0.12 in3.0 mm
02:45 PM 41.0°F5.0°C 38.9°F3.8°C 92% 3.8 mph ENE6.1 kmh ENE 5.4 mph8.7 kmh 29.89 in1012.2 mb 0.02 in0.5 mm 0.04 in1.0 mm 0.13 in3.3 mm
03:00 PM 41.0°F5.0°C 38.9°F3.8°C 92% 1.6 mph ENE2.6 kmh ENE 7.6 mph12.2 kmh 29.88 in1011.9 mb 0.01 in0.3 mm 0.00 in0.0 mm 0.13 in3.3 mm
03:15 PM 40.8°F4.9°C 38.7°F3.7°C 92% 3.1 mph ENE5.0 kmh ENE 6.0 mph9.7 kmh 29.88 in1011.9 mb 0.02 in0.5 mm 0.04 in1.0 mm 0.14 in3.6 mm
03:30 PM 40.6°F4.8°C 38.5°F3.6°C 92% 4.5 mph E7.2 kmh E 5.4 mph8.7 kmh 29.88 in1011.9 mb 0.02 in0.5 mm 0.00 in0.0 mm 0.14 in3.6 mm
03:45 PM 40.6°F4.8°C 38.5°F3.6°C 92% 0.7 mph ESE1.1 kmh ESE 6.0 mph9.7 kmh 29.88 in1011.9 mb 0.01 in0.3 mm 0.00 in0.0 mm 0.14 in3.6 mm
04:00 PM 40.6°F4.8°C 38.5°F3.6°C 92% 2.2 mph E3.5 kmh E 5.4 mph8.7 kmh 29.89 in1012.2 mb 0.01 in0.3 mm 0.00 in0.0 mm 0.14 in3.6 mm
04:15 PM 40.5°F4.7°C 38.3°F3.5°C 92% 0.7 mph E1.1 kmh E 5.4 mph8.7 kmh 29.89 in1012.2 mb 0.01 in0.3 mm 0.00 in0.0 mm 0.15 in3.8 mm
04:30 PM 40.5°F4.7°C 38.3°F3.5°C 92% Calm Calm 3.8 mph6.1 kmh 29.89 in1012.2 mb 0.01 in0.3 mm 0.00 in0.0 mm 0.15 in3.8 mm
04:45 PM 40.1°F4.5°C 38.0°F3.3°C 92% 2.2 mph ENE3.5 kmh ENE 3.8 mph6.1 kmh 29.88 in1011.9 mb 0.01 in0.3 mm 0.00 in0.0 mm 0.15 in3.8 mm
05:00 PM 39.9°F4.4°C 37.8°F3.2°C 92% 2.2 mph ENE3.5 kmh ENE 4.5 mph7.2 kmh 29.89 in1012.2 mb 0.01 in0.3 mm 0.00 in0.0 mm 0.15 in3.8 mm
05:15 PM 39.7°F4.3°C 37.6°F3.1°C 92% 0.7 mph ENE1.1 kmh ENE 4.5 mph7.2 kmh 29.89 in1012.2 mb 0.00 in0.0 mm 0.00 in0.0 mm 0.15 in3.8 mm
05:30 PM 39.7°F4.3°C 37.6°F3.1°C 92% 2.2 mph ENE3.5 kmh ENE 3.8 mph6.1 kmh 29.89 in1012.2 mb 0.00 in0.0 mm 0.00 in0.0 mm 0.15 in3.8 mm
05:45 PM 39.7°F4.3°C 37.6°F3.1°C 92% 3.1 mph ENE5.0 kmh ENE 4.5 mph7.2 kmh 29.90 in1012.5 mb 0.00 in0.0 mm 0.00 in0.0 mm 0.15 in3.8 mm
06:00 PM 39.7°F4.3°C 37.6°F3.1°C 92% 2.2 mph E3.5 kmh E 3.8 mph6.1 kmh 29.91 in1012.9 mb 0.00 in0.0 mm 0.00 in0.0 mm 0.15 in3.8 mm
06:15 PM 39.6°F4.2°C 37.4°F3.0°C 92% 2.2 mph E3.5 kmh E 5.4 mph8.7 kmh 29.91 in1012.9 mb 0.00 in0.0 mm 0.00 in0.0 mm 0.15 in3.8 mm
06:30 PM 39.6°F4.2°C 37.4°F3.0°C 92% 1.6 mph ENE2.6 kmh ENE 4.5 mph7.2 kmh 29.90 in1012.5 mb 0.00 in0.0 mm 0.00 in0.0 mm 0.15 in3.8 mm
06:45 PM 39.6°F4.2°C 37.4°F3.0°C 92% 2.2 mph ENE3.5 kmh ENE 4.5 mph7.2 kmh 29.91 in1012.9 mb 0.01 in0.3 mm 0.04 in1.0 mm 0.17 in4.3 mm
07:00 PM 39.4°F4.1°C 37.3°F2.9°C 92% 2.2 mph NE3.5 kmh NE 3.8 mph6.1 kmh 29.92 in1013.2 mb 0.01 in0.3 mm 0.00 in0.0 mm 0.17 in4.3 mm
07:15 PM 39.4°F4.1°C 37.3°F2.9°C 92% 2.2 mph E3.5 kmh E 3.1 mph5.0 kmh 29.93 in1013.5 mb 0.01 in0.3 mm 0.00 in0.0 mm 0.17 in4.3 mm
07:30 PM 39.4°F4.1°C 37.3°F2.9°C 92% 0.7 mph ENE1.1 kmh ENE 3.1 mph5.0 kmh 29.92 in1013.2 mb 0.01 in0.3 mm 0.00 in0.0 mm 0.17 in4.3 mm
07:45 PM 39.4°F4.1°C 37.5°F3.1°C 93% Calm Calm 3.8 mph6.1 kmh 29.92 in1013.2 mb 0.00 in0.0 mm 0.00 in0.0 mm 0.17 in4.3 mm
08:00 PM 39.2°F4.0°C 37.4°F3.0°C 93% Calm Calm 1.6 mph2.6 kmh 29.92 in1013.2 mb 0.00 in0.0 mm 0.00 in0.0 mm 0.17 in4.3 mm
08:15 PM 39.4°F4.1°C 37.5°F3.1°C 93% Calm Calm 1.6 mph2.6 kmh 29.93 in1013.5 mb 0.00 in0.0 mm 0.00 in0.0 mm 0.17 in4.3 mm
08:30 PM 39.4°F4.1°C 37.5°F3.1°C 93% Calm Calm 2.2 mph3.5 kmh 29.93 in1013.5 mb 0.00 in0.0 mm 0.00 in0.0 mm 0.17 in4.3 mm
08:45 PM 39.6°F4.2°C 37.7°F3.2°C 93% 1.6 mph NE2.6 kmh NE 3.1 mph5.0 kmh 29.93 in1013.5 mb 0.00 in0.0 mm 0.00 in0.0 mm 0.17 in4.3 mm
09:00 PM 39.6°F4.2°C 37.7°F3.2°C 93% Calm Calm 4.5 mph7.2 kmh 29.93 in1013.5 mb 0.00 in0.0 mm 0.00 in0.0 mm 0.17 in4.3 mm
09:15 PM 39.6°F4.2°C 37.7°F3.2°C 93% 2.2 mph ENE3.5 kmh ENE 3.1 mph5.0 kmh 29.94 in1013.9 mb 0.00 in0.0 mm 0.00 in0.0 mm 0.17 in4.3 mm
09:30 PM 39.6°F4.2°C 37.7°F3.2°C 93% 2.2 mph NE3.5 kmh NE 3.1 mph5.0 kmh 29.94 in1013.9 mb 0.00 in0.0 mm 0.00 in0.0 mm 0.17 in4.3 mm
09:45 PM 39.4°F4.1°C 37.5°F3.1°C 93% 2.2 mph ENE3.5 kmh ENE 5.4 mph8.7 kmh 29.95 in1014.2 mb 0.00 in0.0 mm 0.00 in0.0 mm 0.17 in4.3 mm
10:00 PM 39.4°F4.1°C 37.8°F3.2°C 94% 0.7 mph E1.1 kmh E 2.2 mph3.5 kmh 29.95 in1014.2 mb 0.01 in0.3 mm 0.01 in0.3 mm 0.18 in4.6 mm
10:15 PM 39.4°F4.1°C 37.8°F3.2°C 94% 2.2 mph E3.5 kmh E 3.1 mph5.0 kmh 29.94 in1013.9 mb 0.01 in0.3 mm 0.00 in0.0 mm 0.18 in4.6 mm
10:30 PM 39.4°F4.1°C 37.8°F3.2°C 94% 2.2 mph ENE3.5 kmh ENE 3.1 mph5.0 kmh 29.93 in1013.5 mb 0.01 in0.3 mm 0.00 in0.0 mm 0.18 in4.6 mm
10:45 PM 39.2°F4.0°C 37.6°F3.1°C 94% Calm Calm 1.6 mph2.6 kmh 29.93 in1013.5 mb 0.01 in0.3 mm 0.00 in0.0 mm 0.18 in4.6 mm
11:00 PM 39.2°F4.0°C 37.6°F3.1°C 94% 0.7 mph E1.1 kmh E 1.6 mph2.6 kmh 29.93 in1013.5 mb 0.00 in0.0 mm 0.00 in0.0 mm 0.18 in4.6 mm
11:15 PM 39.4°F4.1°C 38.1°F3.4°C 95% 0.7 mph ENE1.1 kmh ENE 3.1 mph5.0 kmh 29.92 in1013.2 mb 0.00 in0.0 mm 0.00 in0.0 mm 0.18 in4.6 mm
11:30 PM 39.6°F4.2°C 38.3°F3.5°C 95% 0.7 mph S1.1 kmh S 2.2 mph3.5 kmh 29.92 in1013.2 mb 0.00 in0.0 mm 0.00 in0.0 mm 0.18 in4.6 mm
11:45 PM 39.6°F4.2°C 38.3°F3.5°C 95% 0.7 mph E1.1 kmh E 1.6 mph2.6 kmh 29.92 in1013.2 mb 0.00 in0.0 mm 0.00 in0.0 mm 0.18 in4.6 mm